Time;durP1;ratioP1;P1;durP2;ratioP2;P2;SDS_P1;SDS_P2;PMS_P1;PMS_P2;Temp;Humidity;BMP_temperature;BMP_pressure;BME280_temperature;BME280_humidity;BME280_pressure;Samples;Min_cycle;Max_cycle;Signal;HPM_P1;HPM_P2
2022/03/08 00:00:49;;;;;;;35.38;18.23;;;;;;;;;;4771509;30;20043;-78
2022/03/08 00:03:35;;;;;;;39.95;20.08;;;;;;;;;;4771241;30;20477;-77
2022/03/08 00:06:21;;;;;;;30.92;18.23;;;;;;;;;;4777471;30;20522;-77
2022/03/08 00:09:06;;;;;;;62.22;30.02;;;;;;;;;;4771474;30;20391;-78
2022/03/08 00:11:51;;;;;;;1094.90;531.85;;;;;;;;;;4771102;30;20044;-78
2022/03/08 00:14:38;;;;;;;38.33;19.15;;;;;;;;;;4772649;30;20157;-78
2022/03/08 00:17:23;;;;;;;173.85;61.17;;;;;;;;;;4773162;30;20043;-79
2022/03/08 00:20:09;;;;;;;607.38;312.20;;;;;;;;;;4773357;30;20048;-79
2022/03/08 00:22:55;;;;;;;355.92;128.63;;;;;;;;;;4773449;30;20039;-78
2022/03/08 00:25:40;;;;;;;404.63;168.95;;;;;;;;;;4779176;30;20040;-77
2022/03/08 00:28:27;;;;;;;515.05;227.52;;;;;;;;;;4772919;30;20043;-78
2022/03/08 00:31:12;;;;;;;153.98;58.22;;;;;;;;;;4773258;30;20479;-79
2022/03/08 00:34:00;;;;;;;1551.45;549.75;;;;;;;;;;4774268;30;20387;-80
2022/03/08 00:36:46;;;;;;;168.27;71.65;;;;;;;;;;4778385;30;20483;-80
2022/03/08 00:39:31;;;;;;;331.42;163.77;;;;;;;;;;4772905;30;20396;-78
2022/03/08 00:42:18;;;;;;;88.55;42.85;;;;;;;;;;4778135;30;20055;-78
2022/03/08 00:45:07;;;;;;;98.93;42.15;;;;;;;;;;4772176;30;20048;-80
2022/03/08 00:47:53;;;;;;;85.22;44.70;;;;;;;;;;4772832;30;20047;-77
2022/03/08 00:50:40;;;;;;;95.90;57.35;;;;;;;;;;4772244;30;20052;-79
2022/03/08 00:53:25;;;;;;;24.80;14.45;;;;;;;;;;4771712;30;20051;-79
2022/03/08 00:56:11;;;;;;;41.25;22.17;;;;;;;;;;4772472;30;20056;-80
2022/03/08 00:58:56;;;;;;;46.20;25.70;;;;;;;;;;4772461;30;20052;-80
2022/03/08 01:01:42;;;;;;;39.05;19.48;;;;;;;;;;4772499;30;20056;-80
2022/03/08 01:04:28;;;;;;;28.85;15.45;;;;;;;;;;4772796;30;20047;-79
2022/03/08 01:07:16;;;;;;;26.55;14.93;;;;;;;;;;4778114;30;20047;-78
2022/03/08 01:10:05;;;;;;;45.55;22.73;;;;;;;;;;4772335;30;20047;-79
2022/03/08 01:12:52;;;;;;;35.83;19.67;;;;;;;;;;4777441;30;20498;-78
2022/03/08 01:15:37;;;;;;;44.08;23.45;;;;;;;;;;4772335;30;20047;-80
2022/03/08 01:18:23;;;;;;;36.70;19.63;;;;;;;;;;4772072;30;20048;-79
2022/03/08 01:21:08;;;;;;;52.03;28.13;;;;;;;;;;4772088;30;20059;-80
2022/03/08 01:23:54;;;;;;;45.20;24.58;;;;;;;;;;4772638;30;20047;-78
2022/03/08 01:26:39;;;;;;;51.58;25.00;;;;;;;;;;4773465;30;20438;-79
2022/03/08 01:29:25;;;;;;;40.47;21.23;;;;;;;;;;4777322;30;20051;-78
2022/03/08 01:32:11;;;;;;;18.92;11.05;;;;;;;;;;4771982;30;20056;-79
2022/03/08 01:34:56;;;;;;;44.97;22.85;;;;;;;;;;4776650;30;20423;-80
2022/03/08 01:37:42;;;;;;;44.03;23.05;;;;;;;;;;4771840;30;20063;-79
2022/03/08 01:40:27;;;;;;;37.15;20.88;;;;;;;;;;4758694;30;20402;-79
2022/03/08 01:43:12;;;;;;;38.63;20.52;;;;;;;;;;4776736;30;20414;-78
2022/03/08 01:45:57;;;;;;;44.85;23.88;;;;;;;;;;4771955;30;20051;-78
2022/03/08 01:48:44;;;;;;;28.52;15.60;;;;;;;;;;4777705;30;20059;-79
2022/03/08 01:51:31;;;;;;;43.40;23.85;;;;;;;;;;4771494;30;20044;-78
2022/03/08 01:54:17;;;;;;;41.35;21.55;;;;;;;;;;4776940;30;20052;-80
2022/03/08 01:57:04;;;;;;;31.58;16.95;;;;;;;;;;4786908;30;20056;-77
2022/03/08 01:59:50;;;;;;;48.80;24.35;;;;;;;;;;4794242;29;20491;-79
2022/03/08 02:02:36;;;;;;;48.92;24.48;;;;;;;;;;4771566;30;20044;-77
2022/03/08 02:05:22;;;;;;;51.80;25.38;;;;;;;;;;4771933;30;20052;-77
2022/03/08 02:08:08;;;;;;;54.63;29.08;;;;;;;;;;4771952;30;20061;-79
2022/03/08 02:10:54;;;;;;;57.08;28.50;;;;;;;;;;4771360;30;20060;-77
2022/03/08 02:13:40;;;;;;;58.97;28.15;;;;;;;;;;4771804;30;20048;-79
2022/03/08 02:16:25;;;;;;;61.55;28.80;;;;;;;;;;4771933;30;20047;-78
2022/03/08 02:19:12;;;;;;;51.90;25.35;;;;;;;;;;4771305;30;20048;-78
2022/03/08 02:21:57;;;;;;;47.55;22.05;;;;;;;;;;4777676;30;20051;-78
2022/03/08 02:24:43;;;;;;;49.72;22.55;;;;;;;;;;4771107;30;20044;-80
2022/03/08 02:27:31;;;;;;;60.25;26.92;;;;;;;;;;4776687;30;20051;-79
2022/03/08 02:30:18;;;;;;;38.80;20.42;;;;;;;;;;4770927;30;20047;-78
2022/03/08 02:33:03;;;;;;;41.63;19.92;;;;;;;;;;4773287;30;20056;-80
2022/03/08 02:35:49;;;;;;;43.33;23.20;;;;;;;;;;4772223;30;20506;-78
2022/03/08 02:38:35;;;;;;;44.55;21.83;;;;;;;;;;4776518;30;20043;-79
2022/03/08 02:41:20;;;;;;;58.00;27.05;;;;;;;;;;4770871;30;20060;-79
2022/03/08 02:44:06;;;;;;;60.35;26.23;;;;;;;;;;4770803;30;20048;-80
2022/03/08 02:46:52;;;;;;;52.10;24.73;;;;;;;;;;4770809;30;20048;-80
2022/03/08 02:49:37;;;;;;;57.88;27.02;;;;;;;;;;4770515;30;20052;-79
2022/03/08 02:52:22;;;;;;;64.38;28.88;;;;;;;;;;4770292;30;20051;-80
2022/03/08 02:55:11;;;;;;;54.30;25.80;;;;;;;;;;4770390;30;20411;-79
2022/03/08 02:57:58;;;;;;;53.75;22.60;;;;;;;;;;4770990;30;20047;-80
2022/03/08 03:00:44;;;;;;;62.13;29.25;;;;;;;;;;4770706;30;20047;-80
2022/03/08 03:03:29;;;;;;;59.00;27.95;;;;;;;;;;4771336;30;20051;-79
2022/03/08 03:06:14;;;;;;;68.05;29.27;;;;;;;;;;4770559;30;20044;-80
2022/03/08 03:09:00;;;;;;;57.88;28.20;;;;;;;;;;4774069;30;20052;-80
2022/03/08 03:11:45;;;;;;;59.85;28.02;;;;;;;;;;4774531;30;20060;-80
2022/03/08 03:14:31;;;;;;;64.90;28.95;;;;;;;;;;4774399;30;20490;-80
2022/03/08 03:17:17;;;;;;;60.85;29.88;;;;;;;;;;4772776;30;20051;-80
2022/03/08 03:20:05;;;;;;;68.07;30.85;;;;;;;;;;4774163;30;20055;-80
2022/03/08 03:22:52;;;;;;;78.88;31.27;;;;;;;;;;4774204;30;20052;-79
2022/03/08 03:25:38;;;;;;;72.72;31.08;;;;;;;;;;4778776;30;20483;-80
2022/03/08 03:28:23;;;;;;;59.20;27.70;;;;;;;;;;4778941;30;20051;-80
2022/03/08 03:31:09;;;;;;;58.13;28.15;;;;;;;;;;4774182;30;20063;-80
2022/03/08 03:33:54;;;;;;;58.38;24.38;;;;;;;;;;4773758;30;20414;-80
2022/03/08 03:36:40;;;;;;;60.63;28.02;;;;;;;;;;4774117;30;20051;-81
2022/03/08 03:39:25;;;;;;;67.68;29.20;;;;;;;;;;4760413;30;20056;-81
2022/03/08 03:42:10;;;;;;;54.08;25.15;;;;;;;;;;4772706;30;20044;-80
2022/03/08 03:44:55;;;;;;;58.38;27.23;;;;;;;;;;4773876;30;20039;-79
2022/03/08 03:47:42;;;;;;;57.00;26.77;;;;;;;;;;4774039;30;20486;-78
2022/03/08 03:50:27;;;;;;;54.45;25.65;;;;;;;;;;4760240;30;20064;-80
2022/03/08 03:53:13;;;;;;;58.30;28.27;;;;;;;;;;4774030;30;20055;-80
2022/03/08 03:55:59;;;;;;;62.05;28.50;;;;;;;;;;4773353;30;20055;-79
2022/03/08 03:58:44;;;;;;;59.28;28.05;;;;;;;;;;4773838;30;20391;-79
2022/03/08 04:01:30;;;;;;;34.10;17.58;;;;;;;;;;4773398;30;20414;-78
2022/03/08 04:04:16;;;;;;;69.63;33.30;;;;;;;;;;4774368;30;20043;-78
2022/03/08 04:07:01;;;;;;;60.00;28.17;;;;;;;;;;4775005;30;20047;-78
2022/03/08 04:09:47;;;;;;;65.32;31.42;;;;;;;;;;4774559;30;20052;-79
2022/03/08 04:12:32;;;;;;;73.00;33.28;;;;;;;;;;4780407;29;20060;-81
2022/03/08 04:15:18;;;;;;;38.88;17.23;;;;;;;;;;4790955;29;20256;-80
2022/03/08 04:18:04;;;;;;;66.28;28.83;;;;;;;;;;4792174;30;20052;-80
2022/03/08 04:20:49;;;;;;;62.92;29.90;;;;;;;;;;4790851;30;20068;-80
2022/03/08 04:23:35;;;;;;;46.95;22.60;;;;;;;;;;4776612;30;20048;-79
2022/03/08 04:26:20;;;;;;;43.28;21.42;;;;;;;;;;4773257;30;20418;-79
2022/03/08 04:29:06;;;;;;;57.00;25.63;;;;;;;;;;4773152;30;20044;-79
2022/03/08 04:31:52;;;;;;;62.00;27.15;;;;;;;;;;4773066;30;20439;-80
2022/03/08 04:34:37;;;;;;;53.65;26.15;;;;;;;;;;4772741;30;20407;-79
2022/03/08 04:37:23;;;;;;;32.72;17.05;;;;;;;;;;4772706;30;20052;-80
2022/03/08 04:40:09;;;;;;;52.95;22.45;;;;;;;;;;4778066;30;20055;-78
2022/03/08 04:42:55;;;;;;;54.60;25.70;;;;;;;;;;4775290;30;20411;-79
2022/03/08 04:45:40;;;;;;;114.70;41.05;;;;;;;;;;4773104;30;20047;-79
2022/03/08 04:48:26;;;;;;;71.45;32.00;;;;;;;;;;4779065;30;20055;-80
2022/03/08 04:51:12;;;;;;;62.28;28.42;;;;;;;;;;4775534;30;20063;-79
2022/03/08 04:53:57;;;;;;;64.70;30.95;;;;;;;;;;4772602;30;20498;-80
2022/03/08 04:56:43;;;;;;;65.43;27.88;;;;;;;;;;4772594;30;20055;-81
2022/03/08 04:59:28;;;;;;;55.40;27.67;;;;;;;;;;4772500;30;20043;-79
2022/03/08 05:02:14;;;;;;;59.17;28.52;;;;;;;;;;4772315;30;20056;-79
2022/03/08 05:04:59;;;;;;;66.55;31.08;;;;;;;;;;4772538;30;20048;-79
2022/03/08 05:07:45;;;;;;;65.30;30.50;;;;;;;;;;4772573;30;20391;-79
2022/03/08 05:10:30;;;;;;;64.60;31.88;;;;;;;;;;4772577;30;20494;-80
2022/03/08 05:13:17;;;;;;;75.65;34.70;;;;;;;;;;4772071;30;20044;-80
2022/03/08 05:16:02;;;;;;;73.45;33.00;;;;;;;;;;4771700;30;20045;-79
2022/03/08 05:18:48;;;;;;;70.00;31.95;;;;;;;;;;4772146;30;20056;-79
2022/03/08 05:21:33;;;;;;;75.80;35.42;;;;;;;;;;4772167;30;20047;-79
2022/03/08 05:24:18;;;;;;;65.47;29.55;;;;;;;;;;4771949;30;20051;-78
2022/03/08 05:27:05;;;;;;;73.28;32.65;;;;;;;;;;4771911;30;20059;-79
2022/03/08 05:29:51;;;;;;;61.25;29.05;;;;;;;;;;4771278;30;20355;-79
2022/03/08 05:32:36;;;;;;;61.17;29.30;;;;;;;;;;4777156;30;20047;-80
2022/03/08 05:35:21;;;;;;;60.88;29.15;;;;;;;;;;4774210;30;20052;-79
2022/03/08 05:38:06;;;;;;;68.45;31.17;;;;;;;;;;4771876;30;20048;-79
2022/03/08 05:40:52;;;;;;;61.55;32.67;;;;;;;;;;4772072;30;20055;-80
2022/03/08 05:43:38;;;;;;;62.90;28.00;;;;;;;;;;4771935;30;20044;-80
2022/03/08 05:46:23;;;;;;;79.70;35.13;;;;;;;;;;4777393;30;20466;-80
2022/03/08 05:49:09;;;;;;;58.00;29.52;;;;;;;;;;4771987;30;20056;-80
2022/03/08 05:51:55;;;;;;;64.80;30.83;;;;;;;;;;4771421;30;20063;-79
2022/03/08 05:54:40;;;;;;;76.30;36.55;;;;;;;;;;4771417;30;20055;-79
2022/03/08 05:57:26;;;;;;;68.45;30.98;;;;;;;;;;4771338;30;20407;-80
2022/03/08 06:00:12;;;;;;;78.85;33.33;;;;;;;;;;4771599;30;20081;-80
2022/03/08 06:02:58;;;;;;;66.47;33.40;;;;;;;;;;4771540;30;20051;-79
2022/03/08 06:05:43;;;;;;;73.80;34.38;;;;;;;;;;4775807;30;20044;-79
2022/03/08 06:08:29;;;;;;;60.83;30.42;;;;;;;;;;4771355;30;20051;-78
2022/03/08 06:11:14;;;;;;;66.40;34.03;;;;;;;;;;4771535;30;20056;-80
2022/03/08 06:14:00;;;;;;;64.43;31.58;;;;;;;;;;4771351;30;20051;-79
2022/03/08 06:16:46;;;;;;;59.05;29.25;;;;;;;;;;4771397;30;20051;-79
2022/03/08 06:19:31;;;;;;;69.25;32.30;;;;;;;;;;4771362;30;20059;-79
2022/03/08 06:22:17;;;;;;;84.03;36.45;;;;;;;;;;4771199;30;20051;-79
2022/03/08 06:25:03;;;;;;;82.18;36.83;;;;;;;;;;4771319;30;20047;-78
2022/03/08 06:27:48;;;;;;;64.00;32.63;;;;;;;;;;4778828;30;20040;-80
2022/03/08 06:30:34;;;;;;;61.75;33.97;;;;;;;;;;4792472;29;20032;-79
2022/03/08 06:33:19;;;;;;;67.00;34.40;;;;;;;;;;4771070;30;20047;-79
2022/03/08 06:36:05;;;;;;;61.17;31.13;;;;;;;;;;4770749;30;20052;-79
2022/03/08 06:38:51;;;;;;;69.45;34.95;;;;;;;;;;4770760;30;20055;-80
2022/03/08 06:41:36;;;;;;;81.95;41.17;;;;;;;;;;4770485;30;20051;-80
2022/03/08 06:44:22;;;;;;;82.10;41.65;;;;;;;;;;4770685;30;20055;-79
2022/03/08 06:47:09;;;;;;;96.30;40.42;;;;;;;;;;4771256;30;20051;-79
2022/03/08 06:49:54;;;;;;;77.85;37.15;;;;;;;;;;4770728;30;20052;-81
2022/03/08 06:52:39;;;;;;;71.10;35.95;;;;;;;;;;4770816;30;20487;-79
2022/03/08 06:55:26;;;;;;;69.10;37.22;;;;;;;;;;4770504;30;20044;-80
2022/03/08 06:58:11;;;;;;;75.57;36.83;;;;;;;;;;4770425;30;20410;-80
2022/03/08 07:00:56;;;;;;;65.43;34.10;;;;;;;;;;4770958;30;20044;-79
2022/03/08 07:03:42;;;;;;;65.38;34.22;;;;;;;;;;4775570;30;20060;-80
2022/03/08 07:06:27;;;;;;;64.50;32.00;;;;;;;;;;4779385;30;20052;-79
2022/03/08 07:09:13;;;;;;;54.05;28.08;;;;;;;;;;4771305;30;20048;-80
2022/03/08 07:11:59;;;;;;;62.83;33.40;;;;;;;;;;4777167;30;20043;-80
2022/03/08 07:14:44;;;;;;;60.28;30.58;;;;;;;;;;4771293;30;20067;-79
2022/03/08 07:17:29;;;;;;;64.53;30.30;;;;;;;;;;4771129;30;20051;-79
2022/03/08 07:20:15;;;;;;;67.00;32.55;;;;;;;;;;4771711;30;20403;-80
2022/03/08 07:23:02;;;;;;;65.53;34.08;;;;;;;;;;4770992;30;20056;-80
2022/03/08 07:25:48;;;;;;;55.97;30.10;;;;;;;;;;4770792;30;20040;-81
2022/03/08 07:28:33;;;;;;;87.18;37.53;;;;;;;;;;4757082;30;20055;-79
2022/03/08 07:31:18;;;;;;;61.28;29.67;;;;;;;;;;4770741;30;20082;-80
2022/03/08 07:34:04;;;;;;;78.38;34.10;;;;;;;;;;4769688;30;20047;-79
2022/03/08 07:36:49;;;;;;;69.10;32.10;;;;;;;;;;4770764;30;20483;-80
2022/03/08 07:39:34;;;;;;;70.68;33.35;;;;;;;;;;4776421;30;20052;-79
2022/03/08 07:42:20;;;;;;;69.93;31.20;;;;;;;;;;4770677;30;20061;-78
2022/03/08 07:45:06;;;;;;;80.55;39.60;;;;;;;;;;4770685;30;20494;-79
2022/03/08 07:47:51;;;;;;;112.00;50.38;;;;;;;;;;4770132;30;20055;-79
2022/03/08 07:50:36;;;;;;;45.65;23.48;;;;;;;;;;4769844;30;20052;-80
2022/03/08 07:53:21;;;;;;;61.70;34.80;;;;;;;;;;4774693;30;20391;-79
2022/03/08 07:56:06;;;;;;;61.25;30.40;;;;;;;;;;4773830;30;20048;-80
2022/03/08 07:58:52;;;;;;;31.27;14.98;;;;;;;;;;4773844;30;20060;-80
2022/03/08 08:01:39;;;;;;;54.67;28.40;;;;;;;;;;4773710;30;20048;-80
2022/03/08 08:04:25;;;;;;;69.00;32.47;;;;;;;;;;4774453;30;20048;-79
2022/03/08 08:07:11;;;;;;;59.25;30.00;;;;;;;;;;4760492;30;20064;-80
2022/03/08 08:09:57;;;;;;;55.50;25.80;;;;;;;;;;4780196;30;20491;-80
2022/03/08 08:12:42;;;;;;;64.32;31.08;;;;;;;;;;4774735;30;20047;-80
2022/03/08 08:15:28;;;;;;;29.33;15.68;;;;;;;;;;4773810;30;20241;-80
2022/03/08 08:18:13;;;;;;;25.80;14.93;;;;;;;;;;4774001;30;20486;-79
2022/03/08 08:21:01;;;;;;;34.88;18.23;;;;;;;;;;4779441;30;20402;-79
2022/03/08 08:23:45;;;;;;;21.38;13.02;;;;;;;;;;4773275;30;20048;-79
2022/03/08 08:26:31;;;;;;;32.08;18.73;;;;;;;;;;4773256;30;20047;-78
2022/03/08 08:29:16;;;;;;;23.85;13.80;;;;;;;;;;4772967;30;20047;-79
2022/03/08 08:32:01;;;;;;;24.13;15.45;;;;;;;;;;4773415;30;20055;-78
2022/03/08 08:34:47;;;;;;;18.05;12.23;;;;;;;;;;4773424;30;20056;-81
2022/03/08 08:37:33;;;;;;;33.38;19.20;;;;;;;;;;4776069;30;20044;-80
2022/03/08 08:40:18;;;;;;;29.85;15.52;;;;;;;;;;4777904;30;20051;-79
2022/03/08 08:43:05;;;;;;;37.30;21.30;;;;;;;;;;4779309;29;20047;-80
2022/03/08 08:45:52;;;;;;;31.90;20.77;;;;;;;;;;4794950;29;20051;-80
2022/03/08 08:48:38;;;;;;;30.60;17.98;;;;;;;;;;4772331;30;20052;-80
2022/03/08 08:51:23;;;;;;;29.55;17.65;;;;;;;;;;4772929;30;20052;-79
2022/03/08 08:54:08;;;;;;;31.05;16.95;;;;;;;;;;4773586;30;20056;-79
2022/03/08 08:56:53;;;;;;;13.85;9.10;;;;;;;;;;4772961;30;20051;-80
2022/03/08 08:59:39;;;;;;;30.67;18.00;;;;;;;;;;4772681;30;20483;-79
2022/03/08 09:02:25;;;;;;;14.75;9.32;;;;;;;;;;4773459;30;20052;-77
2022/03/08 09:05:11;;;;;;;23.30;13.27;;;;;;;;;;4758948;30;20056;-80
2022/03/08 09:07:57;;;;;;;23.10;13.45;;;;;;;;;;4778543;30;20055;-80
2022/03/08 09:10:42;;;;;;;24.90;15.43;;;;;;;;;;4773119;30;20059;-81
2022/03/08 09:13:28;;;;;;;29.73;17.08;;;;;;;;;;4772535;30;20083;-79
2022/03/08 09:16:17;;;;;;;27.85;13.48;;;;;;;;;;4772652;30;20048;-79
2022/03/08 09:19:04;;;;;;;32.10;17.98;;;;;;;;;;4772356;30;20060;-80
2022/03/08 09:21:49;;;;;;;26.17;15.45;;;;;;;;;;4772448;30;20487;-77
2022/03/08 09:24:37;;;;;;;34.17;17.23;;;;;;;;;;4772409;30;20499;-78
2022/03/08 09:27:22;;;;;;;15.93;10.13;;;;;;;;;;4773497;30;20051;-80
2022/03/08 09:30:08;;;;;;;28.70;13.70;;;;;;;;;;4777789;30;20044;-77
2022/03/08 09:32:56;;;;;;;26.23;14.38;;;;;;;;;;4773214;30;20403;-82
2022/03/08 09:35:41;;;;;;;20.10;12.20;;;;;;;;;;4772179;30;20051;-81
2022/03/08 09:38:27;;;;;;;30.15;17.35;;;;;;;;;;4765498;30;20063;-81
2022/03/08 09:41:14;;;;;;;24.83;14.82;;;;;;;;;;4772268;30;20073;-79
2022/03/08 09:44:00;;;;;;;18.13;11.70;;;;;;;;;;4772694;30;20063;-79
2022/03/08 09:46:45;;;;;;;28.98;11.45;;;;;;;;;;4772136;30;20143;-78
2022/03/08 09:49:30;;;;;;;21.95;13.60;;;;;;;;;;4769994;30;20056;-79
2022/03/08 09:52:17;;;;;;;29.88;16.75;;;;;;;;;;4771299;30;20059;-77
2022/03/08 09:55:04;;;;;;;20.13;12.13;;;;;;;;;;4771467;30;20510;-77
2022/03/08 09:57:49;;;;;;;34.03;18.05;;;;;;;;;;4771752;30;20048;-79
2022/03/08 10:00:36;;;;;;;18.17;10.90;;;;;;;;;;4771521;30;20052;-81
2022/03/08 10:03:39;;;;;;;22.33;12.70;;;;;;;;;;4770392;30;20074;-80
2022/03/08 10:06:38;;;;;;;40.42;20.23;;;;;;;;;;4771441;30;20051;-79
2022/03/08 10:09:25;;;;;;;39.22;20.48;;;;;;;;;;4771612;30;20048;-79
2022/03/08 10:12:17;;;;;;;36.42;20.02;;;;;;;;;;4771158;30;20055;-79
2022/03/08 10:15:29;;;;;;;35.33;18.88;;;;;;;;;;4775474;30;20047;-83
2022/03/08 10:18:31;;;;;;;38.53;19.80;;;;;;;;;;4776785;30;20064;-84
2022/03/08 10:21:43;;;;;;;44.17;24.08;;;;;;;;;;4771622;30;20060;-84
2022/03/08 10:24:32;;;;;;;30.27;16.33;;;;;;;;;;4776299;30;20051;-81
2022/03/08 10:27:19;;;;;;;26.75;15.82;;;;;;;;;;4771322;30;20040;-82
2022/03/08 10:30:04;;;;;;;28.92;12.48;;;;;;;;;;4771655;30;20404;-81
2022/03/08 10:32:53;;;;;;;30.63;15.27;;;;;;;;;;4757496;30;20047;-82
2022/03/08 10:35:40;;;;;;;17.33;10.85;;;;;;;;;;4771122;30;20051;-81
2022/03/08 10:38:26;;;;;;;26.23;14.05;;;;;;;;;;4770625;30;20048;-81
2022/03/08 10:41:19;;;;;;;54.22;24.92;;;;;;;;;;4771363;30;20055;-82
2022/03/08 10:44:04;;;;;;;41.20;22.33;;;;;;;;;;4772757;30;20051;-79
2022/03/08 10:47:08;;;;;;;30.30;16.00;;;;;;;;;;4770762;30;20414;-81
2022/03/08 10:49:59;;;;;;;39.83;22.58;;;;;;;;;;4771229;30;20404;-78
2022/03/08 10:52:49;;;;;;;33.40;15.60;;;;;;;;;;4771171;30;20508;-81
2022/03/08 10:55:36;;;;;;;26.83;16.00;;;;;;;;;;4771231;30;20044;-82
2022/03/08 10:58:22;;;;;;;21.75;12.68;;;;;;;;;;4772193;30;20051;-80
2022/03/08 11:01:11;;;;;;;17.58;10.88;;;;;;;;;;4790728;29;20032;-77
2022/03/08 11:03:58;;;;;;;22.77;12.93;;;;;;;;;;4778542;30;20039;-78
2022/03/08 11:06:53;;;;;;;19.15;11.30;;;;;;;;;;4776979;30;20048;-80
2022/03/08 11:09:38;;;;;;;23.17;10.93;;;;;;;;;;4771236;30;20420;-81
2022/03/08 11:12:23;;;;;;;15.85;9.57;;;;;;;;;;4770597;30;20051;-80
2022/03/08 11:15:13;;;;;;;32.85;16.33;;;;;;;;;;4770661;30;20059;-81
2022/03/08 11:18:00;;;;;;;21.73;12.80;;;;;;;;;;4770800;30;20399;-82
2022/03/08 11:20:47;;;;;;;9.63;7.90;;;;;;;;;;4770815;30;20051;-81
2022/03/08 11:23:32;;;;;;;10.18;6.97;;;;;;;;;;4772770;30;20055;-81
2022/03/08 11:26:18;;;;;;;39.10;20.00;;;;;;;;;;4774911;30;20052;-81
2022/03/08 11:29:04;;;;;;;25.60;14.27;;;;;;;;;;4772477;30;20056;-81
2022/03/08 11:31:54;;;;;;;30.55;17.52;;;;;;;;;;4774428;30;20047;-82
2022/03/08 11:34:47;;;;;;;25.08;13.63;;;;;;;;;;4774570;30;20052;-81
2022/03/08 11:37:37;;;;;;;25.05;12.15;;;;;;;;;;4773960;30;20044;-82
2022/03/08 11:40:23;;;;;;;40.58;17.38;;;;;;;;;;4779348;30;20052;-83
2022/03/08 11:43:09;;;;;;;31.13;16.63;;;;;;;;;;4774056;30;20051;-82
2022/03/08 11:46:10;;;;;;;32.85;18.00;;;;;;;;;;4774080;30;20047;-80
2022/03/08 11:48:57;;;;;;;19.30;11.57;;;;;;;;;;4778938;30;20051;-82
2022/03/08 11:51:42;;;;;;;26.27;14.48;;;;;;;;;;4773631;30;20056;-81
2022/03/08 11:54:28;;;;;;;26.60;16.10;;;;;;;;;;4780270;30;20047;-81
2022/03/08 11:57:17;;;;;;;13.80;9.48;;;;;;;;;;4773448;30;20048;-80
2022/03/08 12:00:35;;;;;;;26.08;15.95;;;;;;;;;;4772449;30;20402;-81
2022/03/08 12:03:46;;;;;;;25.92;15.35;;;;;;;;;;4772677;30;20044;-80
2022/03/08 12:06:35;;;;;;;33.80;18.17;;;;;;;;;;4773508;30;20051;-85
2022/03/08 12:09:23;;;;;;;25.30;13.05;;;;;;;;;;4773287;30;20158;-82
2022/03/08 12:12:08;;;;;;;31.42;18.50;;;;;;;;;;4759824;30;20055;-81
2022/03/08 12:15:02;;;;;;;24.80;15.43;;;;;;;;;;4774271;30;20043;-83
2022/03/08 12:18:19;;;;;;;37.80;20.13;;;;;;;;;;4773210;30;20487;-82
2022/03/08 12:21:14;;;;;;;30.98;17.35;;;;;;;;;;4773440;30;20402;-83
2022/03/08 12:24:02;;;;;;;30.77;18.20;;;;;;;;;;4774709;30;20056;-83
2022/03/08 12:26:48;;;;;;;32.90;14.63;;;;;;;;;;4773204;30;20051;-82
2022/03/08 12:29:54;;;;;;;26.98;12.60;;;;;;;;;;4773523;30;20055;-82
2022/03/08 12:32:42;;;;;;;25.75;14.38;;;;;;;;;;4772937;30;20060;-82
2022/03/08 12:35:29;;;;;;;23.90;13.70;;;;;;;;;;4773409;30;20047;-81
2022/03/08 12:38:17;;;;;;;19.85;11.10;;;;;;;;;;4773133;30;20051;-83
2022/03/08 12:41:03;;;;;;;27.67;14.10;;;;;;;;;;4773037;30;20059;-84
2022/03/08 12:44:02;;;;;;;23.38;12.35;;;;;;;;;;4780382;30;20059;-82
2022/03/08 12:46:47;;;;;;;34.85;18.63;;;;;;;;;;4779699;30;20052;-84
2022/03/08 12:49:33;;;;;;;26.88;14.50;;;;;;;;;;4773286;30;20498;-84
2022/03/08 12:52:19;;;;;;;24.15;15.40;;;;;;;;;;4773866;30;20418;-81
2022/03/08 12:55:09;;;;;;;23.38;13.07;;;;;;;;;;4773007;30;20490;-81
2022/03/08 12:57:57;;;;;;;20.80;11.00;;;;;;;;;;4773370;30;20051;-81
2022/03/08 13:00:52;;;;;;;33.35;17.10;;;;;;;;;;4779021;30;20055;-80
2022/03/08 13:03:44;;;;;;;18.98;10.40;;;;;;;;;;4773485;30;20051;-81
2022/03/08 13:06:29;;;;;;;55.17;23.05;;;;;;;;;;4772973;30;20479;-81
2022/03/08 13:09:15;;;;;;;31.38;16.50;;;;;;;;;;4772483;30;20048;-79
2022/03/08 13:12:00;;;;;;;23.50;12.38;;;;;;;;;;4772462;30;20047;-81
2022/03/08 13:15:07;;;;;;;30.92;17.30;;;;;;;;;;4772546;30;20043;-83
2022/03/08 13:17:55;;;;;;;31.23;15.05;;;;;;;;;;4796125;29;20036;-82
2022/03/08 13:20:43;;;;;;;25.48;14.65;;;;;;;;;;4779298;30;20048;-83
2022/03/08 13:23:38;;;;;;;16.10;9.50;;;;;;;;;;4773113;30;20048;-83
2022/03/08 13:29:27;;;;;;;16.60;9.75;;;;;;;;;;4772123;30;20055;-82
2022/03/08 13:32:12;;;;;;;21.42;12.63;;;;;;;;;;4773738;30;20056;-82
2022/03/08 13:35:02;;;;;;;23.83;12.63;;;;;;;;;;4781907;30;20047;-83
2022/03/08 13:37:50;;;;;;;27.48;13.38;;;;;;;;;;4772564;30;20415;-82
2022/03/08 13:40:37;;;;;;;21.73;12.23;;;;;;;;;;4777915;30;20060;-81
2022/03/08 13:43:25;;;;;;;23.77;12.60;;;;;;;;;;4772669;30;20475;-83
2022/03/08 13:46:40;;;;;;;11.63;6.40;;;;;;;;;;4772464;30;20047;-81
2022/03/08 13:49:26;;;;;;;;;;;;;;;;;;4772912;30;20051;-82
2022/03/08 13:52:11;;;;;;;19.85;11.93;;;;;;;;;;4772060;30;19917;-83
2022/03/08 13:54:57;;;;;;;37.78;16.50;;;;;;;;;;4772204;30;20052;-79
2022/03/08 13:58:00;;;;;;;36.03;16.13;;;;;;;;;;4771656;30;20490;-81
2022/03/08 14:00:48;;;;;;;22.08;14.80;;;;;;;;;;4773844;30;20495;-81
2022/03/08 14:03:42;;;;;;;18.77;12.30;;;;;;;;;;4772219;30;20048;-82
2022/03/08 14:06:36;;;;;;;25.33;14.10;;;;;;;;;;4772126;30;20051;-80
2022/03/08 14:09:22;;;;;;;25.27;16.50;;;;;;;;;;4778271;30;20040;-82
2022/03/08 14:12:07;;;;;;;21.88;14.35;;;;;;;;;;4773492;30;20056;-82
2022/03/08 14:15:05;;;;;;;28.30;15.75;;;;;;;;;;4771973;30;20060;-83
2022/03/08 14:18:07;;;;;;;42.83;24.45;;;;;;;;;;4771766;30;20051;-83
2022/03/08 14:20:53;;;;;;;38.58;20.00;;;;;;;;;;4771355;30;20059;-83
2022/03/08 14:23:41;;;;;;;39.70;19.10;;;;;;;;;;4777536;30;20059;-84
2022/03/08 14:26:27;;;;;;;52.33;28.33;;;;;;;;;;4773293;30;20044;-84
2022/03/08 14:29:15;;;;;;;43.58;22.00;;;;;;;;;;4777170;30;20407;-82
2022/03/08 14:32:05;;;;;;;43.30;22.38;;;;;;;;;;4771877;30;20411;-78
2022/03/08 14:34:50;;;;;;;41.53;21.83;;;;;;;;;;4771790;30;20056;-80
2022/03/08 14:37:37;;;;;;;60.42;30.67;;;;;;;;;;4771391;30;20483;-79
2022/03/08 14:40:42;;;;;;;75.28;33.03;;;;;;;;;;4770988;30;20450;-81
2022/03/08 14:43:28;;;;;;;45.35;20.85;;;;;;;;;;4771355;30;20043;-82
2022/03/08 14:46:13;;;;;;;52.47;26.77;;;;;;;;;;4757826;30;20063;-80
2022/03/08 14:48:59;;;;;;;175.48;51.97;;;;;;;;;;4771266;30;20051;-81
2022/03/08 14:51:46;;;;;;;84.15;37.42;;;;;;;;;;4772333;30;20056;-80
2022/03/08 14:54:31;;;;;;;66.68;35.92;;;;;;;;;;4771506;30;20048;-81
2022/03/08 14:57:16;;;;;;;71.60;34.40;;;;;;;;;;4769851;30;20479;-80
2022/03/08 15:00:08;;;;;;;63.38;32.88;;;;;;;;;;4770710;30;20047;-80
2022/03/08 15:02:54;;;;;;;69.00;34.63;;;;;;;;;;4771061;30;20055;-80
2022/03/08 15:05:41;;;;;;;95.70;39.80;;;;;;;;;;4771599;30;20047;-81
2022/03/08 15:08:26;;;;;;;138.13;60.45;;;;;;;;;;4770751;30;20048;-77
2022/03/08 15:11:11;;;;;;;173.88;70.82;;;;;;;;;;4778397;30;20483;-82
2022/03/08 15:13:57;;;;;;;178.07;72.32;;;;;;;;;;4771949;30;20429;-80
2022/03/08 15:16:43;;;;;;;207.63;81.22;;;;;;;;;;4771464;30;20423;-81
2022/03/08 15:19:28;;;;;;;218.68;85.90;;;;;;;;;;4771158;30;20056;-80
2022/03/08 15:22:15;;;;;;;262.52;110.97;;;;;;;;;;4771115;30;20048;-81
2022/03/08 15:25:03;;;;;;;123.55;54.00;;;;;;;;;;4771192;30;20384;-80
2022/03/08 15:27:49;;;;;;;85.65;41.08;;;;;;;;;;4770617;30;20052;-82
2022/03/08 15:30:35;;;;;;;79.95;40.58;;;;;;;;;;4771435;30;20051;-81
2022/03/08 15:33:21;;;;;;;119.50;53.33;;;;;;;;;;4785327;29;20027;-81
2022/03/08 15:36:06;;;;;;;99.15;42.95;;;;;;;;;;4793158;29;20048;-81
2022/03/08 15:38:53;;;;;;;93.13;41.45;;;;;;;;;;4776186;30;20048;-83
2022/03/08 15:41:38;;;;;;;82.07;38.72;;;;;;;;;;4776455;30;20491;-81
2022/03/08 15:44:23;;;;;;;65.72;33.80;;;;;;;;;;4770608;30;20487;-83
2022/03/08 15:47:10;;;;;;;65.75;31.55;;;;;;;;;;4771358;30;20039;-82
2022/03/08 15:49:56;;;;;;;59.65;32.35;;;;;;;;;;4771259;30;20399;-82
2022/03/08 15:52:43;;;;;;;80.35;39.22;;;;;;;;;;4770653;30;20511;-82
2022/03/08 15:55:29;;;;;;;81.57;40.97;;;;;;;;;;4778510;30;20052;-82
2022/03/08 15:58:14;;;;;;;86.93;43.10;;;;;;;;;;4770931;30;20048;-81
2022/03/08 16:01:02;;;;;;;72.45;37.17;;;;;;;;;;4771847;30;20475;-82
2022/03/08 16:03:49;;;;;;;85.07;43.25;;;;;;;;;;4777313;30;20059;-82
2022/03/08 16:06:34;;;;;;;94.85;45.75;;;;;;;;;;4772754;30;20518;-83
2022/03/08 16:09:20;;;;;;;126.55;59.22;;;;;;;;;;4771037;30;20418;-84
2022/03/08 16:12:05;;;;;;;90.00;43.08;;;;;;;;;;4775658;30;20047;-82
2022/03/08 16:14:52;;;;;;;41.58;23.30;;;;;;;;;;4770585;30;20056;-82